sensor_id;sensor_type;location;lat;lon;timestamp;temperature;humidity
35962;DHT22;22044;48.298;10.008;2022-09-17T00:00:53;10.40;99.90
35962;DHT22;22044;48.298;10.008;2022-09-17T00:03:20;10.40;99.90
35962;DHT22;22044;48.298;10.008;2022-09-17T00:05:47;10.40;99.90
35962;DHT22;22044;48.298;10.008;2022-09-17T00:08:14;10.30;99.90
35962;DHT22;22044;48.298;10.008;2022-09-17T00:10:43;10.30;99.90
35962;DHT22;22044;48.298;10.008;2022-09-17T00:13:11;10.30;99.90
35962;DHT22;22044;48.298;10.008;2022-09-17T00:15:42;10.40;99.90
35962;DHT22;22044;48.298;10.008;2022-09-17T00:18:11;10.30;99.90
35962;DHT22;22044;48.298;10.008;2022-09-17T00:20:39;10.30;99.90
35962;DHT22;22044;48.298;10.008;2022-09-17T00:23:07;10.30;99.90
35962;DHT22;22044;48.298;10.008;2022-09-17T00:25:36;10.30;99.90
35962;DHT22;22044;48.298;10.008;2022-09-17T00:28:03;10.30;99.90
35962;DHT22;22044;48.298;10.008;2022-09-17T00:30:30;10.30;99.90
35962;DHT22;22044;48.298;10.008;2022-09-17T00:32:58;10.30;99.90
35962;DHT22;22044;48.298;10.008;2022-09-17T00:35:27;10.20;99.90
35962;DHT22;22044;48.298;10.008;2022-09-17T00:37:54;10.20;99.90
35962;DHT22;22044;48.298;10.008;2022-09-17T00:40:21;10.10;99.90
35962;DHT22;22044;48.298;10.008;2022-09-17T00:42:48;10.20;99.90
35962;DHT22;22044;48.298;10.008;2022-09-17T00:45:18;10.10;99.90
35962;DHT22;22044;48.298;10.008;2022-09-17T00:47:46;10.20;99.90
35962;DHT22;22044;48.298;10.008;2022-09-17T00:50:29;10.20;99.90
35962;DHT22;22044;48.298;10.008;2022-09-17T00:53:00;10.20;99.90
35962;DHT22;22044;48.298;10.008;2022-09-17T00:55:30;10.20;99.90
35962;DHT22;22044;48.298;10.008;2022-09-17T00:58:00;10.30;99.90
35962;DHT22;22044;48.298;10.008;2022-09-17T01:00:29;10.30;99.90
35962;DHT22;22044;48.298;10.008;2022-09-17T01:02:57;10.30;99.90
35962;DHT22;22044;48.298;10.008;2022-09-17T01:05:33;10.20;99.90
35962;DHT22;22044;48.298;10.008;2022-09-17T01:08:08;10.20;99.90
35962;DHT22;22044;48.298;10.008;2022-09-17T01:10:56;10.20;99.90
35962;DHT22;22044;48.298;10.008;2022-09-17T01:13:36;10.30;99.90
35962;DHT22;22044;48.298;10.008;2022-09-17T01:16:10;10.20;99.90
35962;DHT22;22044;48.298;10.008;2022-09-17T01:18:47;10.20;99.90
35962;DHT22;22044;48.298;10.008;2022-09-17T01:21:41;10.20;99.90
35962;DHT22;22044;48.298;10.008;2022-09-17T01:33:04;10.20;99.90
35962;DHT22;22044;48.298;10.008;2022-09-17T01:35:36;10.20;99.90
35962;DHT22;22044;48.298;10.008;2022-09-17T01:38:12;10.20;99.90
35962;DHT22;22044;48.298;10.008;2022-09-17T01:40:46;10.20;99.90
35962;DHT22;22044;48.298;10.008;2022-09-17T01:43:20;10.20;99.90
35962;DHT22;22044;48.298;10.008;2022-09-17T01:45:50;10.20;99.90
35962;DHT22;22044;48.298;10.008;2022-09-17T01:48:20;10.20;99.90
35962;DHT22;22044;48.298;10.008;2022-09-17T01:50:50;10.20;99.90
35962;DHT22;22044;48.298;10.008;2022-09-17T01:53:21;10.20;99.90
35962;DHT22;22044;48.298;10.008;2022-09-17T01:55:52;10.20;99.90
35962;DHT22;22044;48.298;10.008;2022-09-17T01:58:23;10.20;99.90
35962;DHT22;22044;48.298;10.008;2022-09-17T02:00:56;10.30;99.90
35962;DHT22;22044;48.298;10.008;2022-09-17T02:03:29;10.30;99.90
35962;DHT22;22044;48.298;10.008;2022-09-17T02:06:00;10.30;99.90
35962;DHT22;22044;48.298;10.008;2022-09-17T02:08:34;10.20;99.90
35962;DHT22;22044;48.298;10.008;2022-09-17T02:11:06;10.20;99.90
35962;DHT22;22044;48.298;10.008;2022-09-17T02:13:37;10.30;99.90
35962;DHT22;22044;48.298;10.008;2022-09-17T02:16:10;10.20;99.90
35962;DHT22;22044;48.298;10.008;2022-09-17T02:18:45;10.20;99.90
35962;DHT22;22044;48.298;10.008;2022-09-17T02:21:17;10.20;99.90
35962;DHT22;22044;48.298;10.008;2022-09-17T02:23:56;10.30;99.90
35962;DHT22;22044;48.298;10.008;2022-09-17T02:26:25;10.20;99.90
35962;DHT22;22044;48.298;10.008;2022-09-17T02:28:55;10.20;99.90
35962;DHT22;22044;48.298;10.008;2022-09-17T02:31:24;10.30;99.90
35962;DHT22;22044;48.298;10.008;2022-09-17T02:33:58;10.30;99.90
35962;DHT22;22044;48.298;10.008;2022-09-17T02:36:27;10.30;99.90
35962;DHT22;22044;48.298;10.008;2022-09-17T02:38:59;10.30;99.90
35962;DHT22;22044;48.298;10.008;2022-09-17T02:41:36;10.30;99.90
35962;DHT22;22044;48.298;10.008;2022-09-17T02:44:10;10.30;99.90
35962;DHT22;22044;48.298;10.008;2022-09-17T02:46:53;10.30;99.90
35962;DHT22;22044;48.298;10.008;2022-09-17T02:49:36;10.40;99.90
35962;DHT22;22044;48.298;10.008;2022-09-17T02:52:13;10.40;99.90
35962;DHT22;22044;48.298;10.008;2022-09-17T02:54:50;10.30;99.90
35962;DHT22;22044;48.298;10.008;2022-09-17T02:57:26;10.30;99.90
35962;DHT22;22044;48.298;10.008;2022-09-17T03:00:00;10.30;99.90
35962;DHT22;22044;48.298;10.008;2022-09-17T03:02:32;10.20;99.90
35962;DHT22;22044;48.298;10.008;2022-09-17T03:05:05;10.20;99.90
35962;DHT22;22044;48.298;10.008;2022-09-17T03:07:32;10.10;99.90
35962;DHT22;22044;48.298;10.008;2022-09-17T03:09:59;10.10;99.90
35962;DHT22;22044;48.298;10.008;2022-09-17T03:12:26;10.00;99.90
35962;DHT22;22044;48.298;10.008;2022-09-17T03:14:54;9.90;99.90
35962;DHT22;22044;48.298;10.008;2022-09-17T03:17:21;9.90;99.90
35962;DHT22;22044;48.298;10.008;2022-09-17T03:19:48;9.90;99.90
35962;DHT22;22044;48.298;10.008;2022-09-17T03:22:17;9.90;99.90
35962;DHT22;22044;48.298;10.008;2022-09-17T03:24:44;9.80;99.90
35962;DHT22;22044;48.298;10.008;2022-09-17T03:27:11;9.90;99.90
35962;DHT22;22044;48.298;10.008;2022-09-17T03:29:38;9.80;99.90
35962;DHT22;22044;48.298;10.008;2022-09-17T03:32:05;9.70;99.90
35962;DHT22;22044;48.298;10.008;2022-09-17T03:34:33;9.70;99.90
35962;DHT22;22044;48.298;10.008;2022-09-17T03:37:00;9.80;99.90
35962;DHT22;22044;48.298;10.008;2022-09-17T03:39:29;9.80;99.90
35962;DHT22;22044;48.298;10.008;2022-09-17T03:41:56;9.90;99.90
35962;DHT22;22044;48.298;10.008;2022-09-17T03:44:23;10.00;99.90
35962;DHT22;22044;48.298;10.008;2022-09-17T03:46:50;9.90;99.90
35962;DHT22;22044;48.298;10.008;2022-09-17T03:49:17;9.90;99.90
35962;DHT22;22044;48.298;10.008;2022-09-17T03:51:44;9.90;99.90
35962;DHT22;22044;48.298;10.008;2022-09-17T03:54:11;9.80;99.90
35962;DHT22;22044;48.298;10.008;2022-09-17T03:56:40;9.80;99.90
35962;DHT22;22044;48.298;10.008;2022-09-17T03:59:07;9.70;99.90
35962;DHT22;22044;48.298;10.008;2022-09-17T04:01:34;9.80;99.90
35962;DHT22;22044;48.298;10.008;2022-09-17T04:04:02;9.70;99.90
35962;DHT22;22044;48.298;10.008;2022-09-17T04:06:29;9.70;99.90
35962;DHT22;22044;48.298;10.008;2022-09-17T04:08:57;9.60;99.90
35962;DHT22;22044;48.298;10.008;2022-09-17T04:11:25;9.60;99.90
35962;DHT22;22044;48.298;10.008;2022-09-17T04:13:54;9.60;99.90
35962;DHT22;22044;48.298;10.008;2022-09-17T04:16:21;9.60;99.90
35962;DHT22;22044;48.298;10.008;2022-09-17T04:18:48;9.60;99.90
35962;DHT22;22044;48.298;10.008;2022-09-17T04:21:15;9.50;99.90
35962;DHT22;22044;48.298;10.008;2022-09-17T04:23:42;9.50;99.90
35962;DHT22;22044;48.298;10.008;2022-09-17T04:26:10;9.40;99.90
35962;DHT22;22044;48.298;10.008;2022-09-17T04:28:38;9.30;99.90
35962;DHT22;22044;48.298;10.008;2022-09-17T04:31:07;9.30;99.90
35962;DHT22;22044;48.298;10.008;2022-09-17T04:33:34;9.30;99.90
35962;DHT22;22044;48.298;10.008;2022-09-17T04:36:02;9.20;99.90
35962;DHT22;22044;48.298;10.008;2022-09-17T04:38:29;9.20;99.90
35962;DHT22;22044;48.298;10.008;2022-09-17T04:40:58;9.20;99.90
35962;DHT22;22044;48.298;10.008;2022-09-17T04:43:25;9.20;99.90
35962;DHT22;22044;48.298;10.008;2022-09-17T04:45:52;9.10;99.90
35962;DHT22;22044;48.298;10.008;2022-09-17T04:48:20;9.10;99.90
35962;DHT22;22044;48.298;10.008;2022-09-17T04:50:47;9.10;99.90
35962;DHT22;22044;48.298;10.008;2022-09-17T04:53:15;9.10;99.90
35962;DHT22;22044;48.298;10.008;2022-09-17T04:55:42;9.10;99.90
35962;DHT22;22044;48.298;10.008;2022-09-17T04:58:09;9.10;99.90
35962;DHT22;22044;48.298;10.008;2022-09-17T05:00:36;9.20;99.90
35962;DHT22;22044;48.298;10.008;2022-09-17T05:03:03;9.10;99.90
35962;DHT22;22044;48.298;10.008;2022-09-17T05:05:32;9.10;99.90
35962;DHT22;22044;48.298;10.008;2022-09-17T05:07:59;9.20;99.90
35962;DHT22;22044;48.298;10.008;2022-09-17T05:10:26;9.20;99.90
35962;DHT22;22044;48.298;10.008;2022-09-17T05:12:54;9.10;99.90
35962;DHT22;22044;48.298;10.008;2022-09-17T05:15:22;9.10;99.90
35962;DHT22;22044;48.298;10.008;2022-09-17T05:17:50;9.10;99.90
35962;DHT22;22044;48.298;10.008;2022-09-17T05:20:17;9.10;99.90
35962;DHT22;22044;48.298;10.008;2022-09-17T05:22:47;9.10;99.90
35962;DHT22;22044;48.298;10.008;2022-09-17T05:25:15;9.10;99.90
35962;DHT22;22044;48.298;10.008;2022-09-17T05:27:43;9.20;99.90
35962;DHT22;22044;48.298;10.008;2022-09-17T05:30:11;9.20;99.90
35962;DHT22;22044;48.298;10.008;2022-09-17T05:32:38;9.20;99.90
35962;DHT22;22044;48.298;10.008;2022-09-17T05:35:06;9.20;99.90
35962;DHT22;22044;48.298;10.008;2022-09-17T05:37:33;9.30;99.90
35962;DHT22;22044;48.298;10.008;2022-09-17T05:40:02;9.30;99.90
35962;DHT22;22044;48.298;10.008;2022-09-17T05:42:30;9.30;99.90
35962;DHT22;22044;48.298;10.008;2022-09-17T05:44:57;9.20;99.90
35962;DHT22;22044;48.298;10.008;2022-09-17T05:47:24;9.20;99.90
35962;DHT22;22044;48.298;10.008;2022-09-17T05:49:52;9.30;99.90
35962;DHT22;22044;48.298;10.008;2022-09-17T05:52:19;9.20;99.90
35962;DHT22;22044;48.298;10.008;2022-09-17T05:54:46;9.20;99.90
35962;DHT22;22044;48.298;10.008;2022-09-17T05:57:14;9.20;99.90
35962;DHT22;22044;48.298;10.008;2022-09-17T05:59:41;9.30;99.90
35962;DHT22;22044;48.298;10.008;2022-09-17T06:02:11;9.30;99.90
35962;DHT22;22044;48.298;10.008;2022-09-17T06:04:39;9.30;99.90
35962;DHT22;22044;48.298;10.008;2022-09-17T06:07:06;9.30;99.90
35962;DHT22;22044;48.298;10.008;2022-09-17T06:09:34;9.10;99.90
35962;DHT22;22044;48.298;10.008;2022-09-17T06:12:02;9.10;99.90
35962;DHT22;22044;48.298;10.008;2022-09-17T06:14:31;9.30;99.90
35962;DHT22;22044;48.298;10.008;2022-09-17T06:16:59;9.30;99.90
35962;DHT22;22044;48.298;10.008;2022-09-17T06:19:26;9.20;99.90
35962;DHT22;22044;48.298;10.008;2022-09-17T06:21:54;9.20;99.90
35962;DHT22;22044;48.298;10.008;2022-09-17T06:24:21;9.20;99.90
35962;DHT22;22044;48.298;10.008;2022-09-17T06:26:48;9.10;99.90
35962;DHT22;22044;48.298;10.008;2022-09-17T06:29:17;9.10;99.90
35962;DHT22;22044;48.298;10.008;2022-09-17T06:31:46;9.30;99.90
35962;DHT22;22044;48.298;10.008;2022-09-17T06:34:14;9.30;99.90
35962;DHT22;22044;48.298;10.008;2022-09-17T06:36:41;9.30;99.90
35962;DHT22;22044;48.298;10.008;2022-09-17T06:39:08;9.30;99.90
35962;DHT22;22044;48.298;10.008;2022-09-17T06:41:36;9.30;99.90
35962;DHT22;22044;48.298;10.008;2022-09-17T06:44:04;9.20;99.90
35962;DHT22;22044;48.298;10.008;2022-09-17T06:46:31;9.20;99.90
35962;DHT22;22044;48.298;10.008;2022-09-17T06:48:59;9.20;99.90
35962;DHT22;22044;48.298;10.008;2022-09-17T06:51:26;9.40;99.90
35962;DHT22;22044;48.298;10.008;2022-09-17T06:53:53;9.40;99.90
35962;DHT22;22044;48.298;10.008;2022-09-17T06:56:20;9.50;99.90
35962;DHT22;22044;48.298;10.008;2022-09-17T06:58:47;9.40;99.90
35962;DHT22;22044;48.298;10.008;2022-09-17T07:01:14;9.40;99.90
35962;DHT22;22044;48.298;10.008;2022-09-17T07:03:41;9.40;99.90
35962;DHT22;22044;48.298;10.008;2022-09-17T07:06:10;9.40;99.90
35962;DHT22;22044;48.298;10.008;2022-09-17T07:08:38;9.30;99.90
35962;DHT22;22044;48.298;10.008;2022-09-17T07:11:05;9.40;99.90
35962;DHT22;22044;48.298;10.008;2022-09-17T07:13:32;9.40;99.90
35962;DHT22;22044;48.298;10.008;2022-09-17T07:16:02;9.40;99.90
35962;DHT22;22044;48.298;10.008;2022-09-17T07:18:29;9.50;99.90
35962;DHT22;22044;48.298;10.008;2022-09-17T07:20:58;9.60;99.90
35962;DHT22;22044;48.298;10.008;2022-09-17T07:23:28;9.60;99.90
35962;DHT22;22044;48.298;10.008;2022-09-17T07:25:57;9.60;99.90
35962;DHT22;22044;48.298;10.008;2022-09-17T07:28:25;9.50;99.90
35962;DHT22;22044;48.298;10.008;2022-09-17T07:30:53;9.50;99.90
35962;DHT22;22044;48.298;10.008;2022-09-17T07:33:22;9.60;99.90
35962;DHT22;22044;48.298;10.008;2022-09-17T07:35:53;9.60;99.90
35962;DHT22;22044;48.298;10.008;2022-09-17T07:38:21;9.60;99.90
35962;DHT22;22044;48.298;10.008;2022-09-17T07:40:54;9.70;99.90
35962;DHT22;22044;48.298;10.008;2022-09-17T07:43:22;9.70;99.90
35962;DHT22;22044;48.298;10.008;2022-09-17T07:45:50;9.80;99.90
35962;DHT22;22044;48.298;10.008;2022-09-17T07:48:18;9.80;99.90
35962;DHT22;22044;48.298;10.008;2022-09-17T07:50:45;9.80;99.90
35962;DHT22;22044;48.298;10.008;2022-09-17T07:53:12;9.90;99.90
35962;DHT22;22044;48.298;10.008;2022-09-17T07:55:40;9.90;99.90
35962;DHT22;22044;48.298;10.008;2022-09-17T07:58:09;9.90;99.90
35962;DHT22;22044;48.298;10.008;2022-09-17T08:00:36;9.90;99.90
35962;DHT22;22044;48.298;10.008;2022-09-17T08:03:03;9.90;99.90
35962;DHT22;22044;48.298;10.008;2022-09-17T08:05:31;9.90;99.90
35962;DHT22;22044;48.298;10.008;2022-09-17T08:07:58;10.00;99.90
35962;DHT22;22044;48.298;10.008;2022-09-17T08:10:25;10.00;99.90
35962;DHT22;22044;48.298;10.008;2022-09-17T08:12:55;10.00;99.90
35962;DHT22;22044;48.298;10.008;2022-09-17T08:15:24;10.00;99.90
35962;DHT22;22044;48.298;10.008;2022-09-17T08:17:51;10.00;99.90
35962;DHT22;22044;48.298;10.008;2022-09-17T08:20:18;10.00;99.90
35962;DHT22;22044;48.298;10.008;2022-09-17T08:22:45;10.00;99.90
35962;DHT22;22044;48.298;10.008;2022-09-17T08:25:12;10.00;99.90
35962;DHT22;22044;48.298;10.008;2022-09-17T08:27:40;9.90;99.90
35962;DHT22;22044;48.298;10.008;2022-09-17T08:30:08;10.00;99.90
35962;DHT22;22044;48.298;10.008;2022-09-17T08:32:36;9.90;99.90
35962;DHT22;22044;48.298;10.008;2022-09-17T08:35:03;9.90;99.90
35962;DHT22;22044;48.298;10.008;2022-09-17T08:37:30;9.80;99.90
35962;DHT22;22044;48.298;10.008;2022-09-17T08:39:58;9.80;99.90
35962;DHT22;22044;48.298;10.008;2022-09-17T08:42:31;9.90;99.90
35962;DHT22;22044;48.298;10.008;2022-09-17T08:45:02;9.90;99.90
35962;DHT22;22044;48.298;10.008;2022-09-17T08:47:33;10.00;99.90
35962;DHT22;22044;48.298;10.008;2022-09-17T08:50:05;10.20;99.90
35962;DHT22;22044;48.298;10.008;2022-09-17T08:52:59;10.40;99.90
35962;DHT22;22044;48.298;10.008;2022-09-17T08:55:36;10.30;99.90
35962;DHT22;22044;48.298;10.008;2022-09-17T08:58:32;10.30;99.90
35962;DHT22;22044;48.298;10.008;2022-09-17T09:01:14;10.30;99.90
35962;DHT22;22044;48.298;10.008;2022-09-17T09:03:57;10.50;99.90
35962;DHT22;22044;48.298;10.008;2022-09-17T09:06:34;10.70;99.90
35962;DHT22;22044;48.298;10.008;2022-09-17T09:09:05;10.60;99.90
35962;DHT22;22044;48.298;10.008;2022-09-17T09:11:36;10.60;99.90
35962;DHT22;22044;48.298;10.008;2022-09-17T09:14:11;10.60;99.90
35962;DHT22;22044;48.298;10.008;2022-09-17T09:16:40;10.40;99.90
35962;DHT22;22044;48.298;10.008;2022-09-17T09:19:21;10.30;99.90
35962;DHT22;22044;48.298;10.008;2022-09-17T09:22:03;10.10;99.90
35962;DHT22;22044;48.298;10.008;2022-09-17T09:24:39;9.80;99.90
35962;DHT22;22044;48.298;10.008;2022-09-17T09:27:15;9.70;99.90
35962;DHT22;22044;48.298;10.008;2022-09-17T09:29:52;9.80;99.90
35962;DHT22;22044;48.298;10.008;2022-09-17T09:32:36;9.80;99.90
35962;DHT22;22044;48.298;10.008;2022-09-17T09:35:15;9.90;99.90
35962;DHT22;22044;48.298;10.008;2022-09-17T09:37:51;9.80;99.90
35962;DHT22;22044;48.298;10.008;2022-09-17T09:40:29;9.80;99.90
35962;DHT22;22044;48.298;10.008;2022-09-17T09:43:00;9.80;99.90
35962;DHT22;22044;48.298;10.008;2022-09-17T09:45:42;9.90;99.90
35962;DHT22;22044;48.298;10.008;2022-09-17T09:48:18;10.00;99.90
35962;DHT22;22044;48.298;10.008;2022-09-17T09:51:01;10.00;99.90
35962;DHT22;22044;48.298;10.008;2022-09-17T09:53:39;10.00;99.90
35962;DHT22;22044;48.298;10.008;2022-09-17T09:56:26;10.00;99.90
35962;DHT22;22044;48.298;10.008;2022-09-17T09:58:55;10.00;99.90
35962;DHT22;22044;48.298;10.008;2022-09-17T10:01:26;10.20;99.90
35962;DHT22;22044;48.298;10.008;2022-09-17T10:03:54;10.30;99.90
35962;DHT22;22044;48.298;10.008;2022-09-17T10:06:23;10.20;99.90
35962;DHT22;22044;48.298;10.008;2022-09-17T10:09:12;10.20;99.90
35962;DHT22;22044;48.298;10.008;2022-09-17T10:11:40;10.20;99.90
35962;DHT22;22044;48.298;10.008;2022-09-17T10:14:19;10.20;99.90
35962;DHT22;22044;48.298;10.008;2022-09-17T10:16:47;10.30;99.90
35962;DHT22;22044;48.298;10.008;2022-09-17T10:19:19;10.40;99.90
35962;DHT22;22044;48.298;10.008;2022-09-17T10:21:50;10.40;99.90
35962;DHT22;22044;48.298;10.008;2022-09-17T10:24:24;10.60;99.90
35962;DHT22;22044;48.298;10.008;2022-09-17T10:27:00;10.40;99.90
35962;DHT22;22044;48.298;10.008;2022-09-17T10:29:29;10.30;99.90
35962;DHT22;22044;48.298;10.008;2022-09-17T10:31:57;10.30;99.90
35962;DHT22;22044;48.298;10.008;2022-09-17T10:34:25;10.50;99.90
35962;DHT22;22044;48.298;10.008;2022-09-17T10:36:54;10.50;99.90
35962;DHT22;22044;48.298;10.008;2022-09-17T10:39:34;10.70;99.90
35962;DHT22;22044;48.298;10.008;2022-09-17T10:42:11;10.90;99.90
35962;DHT22;22044;48.298;10.008;2022-09-17T10:44:50;11.20;99.90
35962;DHT22;22044;48.298;10.008;2022-09-17T10:47:23;11.40;99.90
35962;DHT22;22044;48.298;10.008;2022-09-17T10:50:18;11.40;99.90
35962;DHT22;22044;48.298;10.008;2022-09-17T10:52:48;11.50;99.90
35962;DHT22;22044;48.298;10.008;2022-09-17T10:55:21;11.50;99.90
35962;DHT22;22044;48.298;10.008;2022-09-17T10:58:02;11.60;99.90
35962;DHT22;22044;48.298;10.008;2022-09-17T11:00:41;11.60;99.90
35962;DHT22;22044;48.298;10.008;2022-09-17T11:06:54;11.70;99.90
35962;DHT22;22044;48.298;10.008;2022-09-17T11:09:34;11.80;99.90
35962;DHT22;22044;48.298;10.008;2022-09-17T11:12:18;11.80;99.90
35962;DHT22;22044;48.298;10.008;2022-09-17T11:14:51;12.00;99.90
35962;DHT22;22044;48.298;10.008;2022-09-17T11:17:40;12.10;99.90
35962;DHT22;22044;48.298;10.008;2022-09-17T11:20:20;12.00;99.90
35962;DHT22;22044;48.298;10.008;2022-09-17T11:22:57;12.00;99.90
35962;DHT22;22044;48.298;10.008;2022-09-17T11:25:39;11.80;99.90
35962;DHT22;22044;48.298;10.008;2022-09-17T11:28:23;11.80;99.90
35962;DHT22;22044;48.298;10.008;2022-09-17T11:31:03;11.70;99.90
35962;DHT22;22044;48.298;10.008;2022-09-17T11:33:52;11.70;99.90
35962;DHT22;22044;48.298;10.008;2022-09-17T11:36:24;11.70;99.90
35962;DHT22;22044;48.298;10.008;2022-09-17T11:38:56;11.70;99.90
35962;DHT22;22044;48.298;10.008;2022-09-17T11:41:26;11.70;99.90
35962;DHT22;22044;48.298;10.008;2022-09-17T11:44:04;11.70;99.90
35962;DHT22;22044;48.298;10.008;2022-09-17T11:46:39;11.80;99.90
35962;DHT22;22044;48.298;10.008;2022-09-17T11:49:12;11.80;99.90
35962;DHT22;22044;48.298;10.008;2022-09-17T11:51:45;11.80;99.90
35962;DHT22;22044;48.298;10.008;2022-09-17T11:54:19;11.70;99.90
35962;DHT22;22044;48.298;10.008;2022-09-17T11:56:51;11.80;99.90
35962;DHT22;22044;48.298;10.008;2022-09-17T11:59:29;11.70;99.90
35962;DHT22;22044;48.298;10.008;2022-09-17T12:02:00;11.50;99.90
35962;DHT22;22044;48.298;10.008;2022-09-17T12:04:40;11.30;99.90
35962;DHT22;22044;48.298;10.008;2022-09-17T12:07:16;11.10;99.90
35962;DHT22;22044;48.298;10.008;2022-09-17T12:09:48;11.00;99.90
35962;DHT22;22044;48.298;10.008;2022-09-17T12:12:19;10.80;99.90
35962;DHT22;22044;48.298;10.008;2022-09-17T12:14:52;10.90;99.90
35962;DHT22;22044;48.298;10.008;2022-09-17T12:17:23;10.70;99.90
35962;DHT22;22044;48.298;10.008;2022-09-17T12:19:53;10.70;99.90
35962;DHT22;22044;48.298;10.008;2022-09-17T12:22:24;10.90;99.90
35962;DHT22;22044;48.298;10.008;2022-09-17T12:24:53;11.10;99.90
35962;DHT22;22044;48.298;10.008;2022-09-17T12:27:29;11.20;99.90
35962;DHT22;22044;48.298;10.008;2022-09-17T12:30:09;11.40;99.90
35962;DHT22;22044;48.298;10.008;2022-09-17T12:32:51;11.50;99.90
35962;DHT22;22044;48.298;10.008;2022-09-17T12:35:36;11.50;99.90
35962;DHT22;22044;48.298;10.008;2022-09-17T12:38:21;11.60;99.90
35962;DHT22;22044;48.298;10.008;2022-09-17T12:40:53;11.60;99.90
35962;DHT22;22044;48.298;10.008;2022-09-17T12:43:38;11.70;99.90
35962;DHT22;22044;48.298;10.008;2022-09-17T12:46:24;11.80;99.90
35962;DHT22;22044;48.298;10.008;2022-09-17T12:49:15;11.80;99.90
35962;DHT22;22044;48.298;10.008;2022-09-17T12:51:55;12.00;99.90
35962;DHT22;22044;48.298;10.008;2022-09-17T12:54:37;12.20;99.90
35962;DHT22;22044;48.298;10.008;2022-09-17T12:57:16;12.30;99.90
35962;DHT22;22044;48.298;10.008;2022-09-17T12:59:48;12.30;99.90
35962;DHT22;22044;48.298;10.008;2022-09-17T13:02:21;12.20;99.90
35962;DHT22;22044;48.298;10.008;2022-09-17T13:08:31;12.00;99.90
35962;DHT22;22044;48.298;10.008;2022-09-17T13:11:11;12.00;99.90
35962;DHT22;22044;48.298;10.008;2022-09-17T13:13:48;12.00;99.90
35962;DHT22;22044;48.298;10.008;2022-09-17T13:16:21;11.80;99.90
35962;DHT22;22044;48.298;10.008;2022-09-17T13:18:56;11.70;99.90
35962;DHT22;22044;48.298;10.008;2022-09-17T13:21:30;11.60;99.90
35962;DHT22;22044;48.298;10.008;2022-09-17T13:23:58;11.70;99.90
35962;DHT22;22044;48.298;10.008;2022-09-17T13:26:34;11.80;99.90
35962;DHT22;22044;48.298;10.008;2022-09-17T13:29:02;12.00;99.90
35962;DHT22;22044;48.298;10.008;2022-09-17T13:31:47;12.10;99.90
35962;DHT22;22044;48.298;10.008;2022-09-17T13:34:28;12.10;99.90
35962;DHT22;22044;48.298;10.008;2022-09-17T13:36:57;12.20;99.90
35962;DHT22;22044;48.298;10.008;2022-09-17T13:39:37;12.30;99.90
35962;DHT22;22044;48.298;10.008;2022-09-17T13:42:08;12.20;99.90
35962;DHT22;22044;48.298;10.008;2022-09-17T13:44:40;12.20;99.90
35962;DHT22;22044;48.298;10.008;2022-09-17T13:47:16;12.20;99.90
35962;DHT22;22044;48.298;10.008;2022-09-17T13:49:48;12.20;99.90
35962;DHT22;22044;48.298;10.008;2022-09-17T13:52:35;12.10;99.90
35962;DHT22;22044;48.298;10.008;2022-09-17T13:55:03;12.10;99.90
35962;DHT22;22044;48.298;10.008;2022-09-17T13:57:32;12.00;99.90
35962;DHT22;22044;48.298;10.008;2022-09-17T14:03:50;12.10;99.90
35962;DHT22;22044;48.298;10.008;2022-09-17T14:06:46;12.00;99.90
35962;DHT22;22044;48.298;10.008;2022-09-17T14:09:38;12.00;99.90
35962;DHT22;22044;48.298;10.008;2022-09-17T14:15:36;12.00;99.90
35962;DHT22;22044;48.298;10.008;2022-09-17T14:18:36;11.90;99.90
35962;DHT22;22044;48.298;10.008;2022-09-17T14:21:08;12.00;99.90
35962;DHT22;22044;48.298;10.008;2022-09-17T14:23:44;12.00;99.90
35962;DHT22;22044;48.298;10.008;2022-09-17T14:26:18;12.00;99.90
35962;DHT22;22044;48.298;10.008;2022-09-17T14:28:55;11.90;99.90
35962;DHT22;22044;48.298;10.008;2022-09-17T14:31:29;11.70;99.90
35962;DHT22;22044;48.298;10.008;2022-09-17T14:33:57;11.70;99.90
35962;DHT22;22044;48.298;10.008;2022-09-17T14:36:24;11.50;99.90
35962;DHT22;22044;48.298;10.008;2022-09-17T14:38:53;11.10;99.90
35962;DHT22;22044;48.298;10.008;2022-09-17T14:41:24;10.00;99.90
35962;DHT22;22044;48.298;10.008;2022-09-17T14:43:53;9.50;99.90
35962;DHT22;22044;48.298;10.008;2022-09-17T14:46:23;9.20;99.90
35962;DHT22;22044;48.298;10.008;2022-09-17T14:48:51;9.20;99.90
35962;DHT22;22044;48.298;10.008;2022-09-17T14:51:27;8.90;99.90
35962;DHT22;22044;48.298;10.008;2022-09-17T14:54:17;8.90;99.90
35962;DHT22;22044;48.298;10.008;2022-09-17T14:57:00;9.00;99.90
35962;DHT22;22044;48.298;10.008;2022-09-17T14:59:48;9.00;99.90
35962;DHT22;22044;48.298;10.008;2022-09-17T15:02:33;9.20;99.90
35962;DHT22;22044;48.298;10.008;2022-09-17T15:05:10;9.30;99.90
35962;DHT22;22044;48.298;10.008;2022-09-17T15:07:41;9.30;99.90
35962;DHT22;22044;48.298;10.008;2022-09-17T15:10:13;9.50;99.90
35962;DHT22;22044;48.298;10.008;2022-09-17T15:12:42;9.60;99.90
35962;DHT22;22044;48.298;10.008;2022-09-17T15:15:16;9.60;99.90
35962;DHT22;22044;48.298;10.008;2022-09-17T15:17:43;9.60;99.90
35962;DHT22;22044;48.298;10.008;2022-09-17T15:20:15;9.70;99.90
35962;DHT22;22044;48.298;10.008;2022-09-17T15:22:45;9.80;99.90
35962;DHT22;22044;48.298;10.008;2022-09-17T15:25:19;9.90;99.90
35962;DHT22;22044;48.298;10.008;2022-09-17T15:27:50;9.90;99.90
35962;DHT22;22044;48.298;10.008;2022-09-17T15:30:19;9.90;99.90
35962;DHT22;22044;48.298;10.008;2022-09-17T15:32:49;10.00;99.90
35962;DHT22;22044;48.298;10.008;2022-09-17T15:35:19;10.10;99.90
35962;DHT22;22044;48.298;10.008;2022-09-17T15:37:48;10.30;99.90
35962;DHT22;22044;48.298;10.008;2022-09-17T15:40:26;10.40;99.90
35962;DHT22;22044;48.298;10.008;2022-09-17T15:43:03;10.50;99.90
35962;DHT22;22044;48.298;10.008;2022-09-17T15:45:32;10.50;99.90
35962;DHT22;22044;48.298;10.008;2022-09-17T15:48:02;10.50;99.90
35962;DHT22;22044;48.298;10.008;2022-09-17T15:50:31;10.40;99.90
35962;DHT22;22044;48.298;10.008;2022-09-17T15:53:20;10.40;99.90
35962;DHT22;22044;48.298;10.008;2022-09-17T15:56:01;10.40;99.90
35962;DHT22;22044;48.298;10.008;2022-09-17T15:58:30;10.30;99.90
35962;DHT22;22044;48.298;10.008;2022-09-17T16:04:18;10.30;99.90
35962;DHT22;22044;48.298;10.008;2022-09-17T16:06:53;10.20;99.90
35962;DHT22;22044;48.298;10.008;2022-09-17T16:09:41;10.20;99.90
35962;DHT22;22044;48.298;10.008;2022-09-17T16:12:11;10.30;99.90
35962;DHT22;22044;48.298;10.008;2022-09-17T16:14:43;10.30;99.90
35962;DHT22;22044;48.298;10.008;2022-09-17T16:17:28;10.50;99.90
35962;DHT22;22044;48.298;10.008;2022-09-17T16:19:57;10.50;99.90